Airport View

Enter AWOS ICAO identifier for current METAR.

ex. KFNL

KD25 040545Z AUTO 00000KT 10SM OVC085 11/09 A3018 RMK AO2 T01060086

4 Aug 2020 05:45

Frequency: 118.375

Phone: 715-543-2004

Other Area AWOS: KARV - KIWD - KEGV - KLNL

TAF KIWD 032320Z 0400/0424 03005KT P6SM BKN100 FM040200 VRB04KT P6SM SCT180 FM041200 01007KT P6SM SCT120